createdAt,value
2023-05-06T00:00:23.316Z,101071.34
2023-05-06T00:02:50.648Z,101078.56
2023-05-06T00:05:18.609Z,101076.72
2023-05-06T00:07:48.978Z,101073.19
2023-05-06T00:10:17.080Z,101064.25
2023-05-06T00:12:44.564Z,101066.94
2023-05-06T00:15:12.161Z,101066.09
2023-05-06T00:17:39.544Z,101059.84
2023-05-06T00:20:07.701Z,101071.47
2023-05-06T00:22:34.984Z,101062.41
2023-05-06T00:25:02.589Z,101064.25
2023-05-06T00:27:29.843Z,101061.56
2023-05-06T00:29:58.257Z,101070.59
2023-05-06T00:32:25.609Z,101061.69
2023-05-06T00:34:52.846Z,101062.53
2023-05-06T00:37:20.093Z,101054.44
2023-05-06T00:39:47.350Z,101054.44
2023-05-06T00:42:14.708Z,101059.00
2023-05-06T00:44:42.024Z,101050.03
2023-05-06T00:47:09.421Z,101052.72
2023-05-06T00:49:36.760Z,101063.50
2023-05-06T00:52:04.646Z,101055.41
2023-05-06T00:54:32.083Z,101050.03
2023-05-06T00:56:59.345Z,101048.34
2023-05-06T00:59:26.884Z,101055.41
2023-05-06T01:01:54.505Z,101056.41
2023-05-06T01:04:24.101Z,101054.56
2023-05-06T01:07:13.616Z,101048.34
2023-05-06T01:09:57.434Z,101058.09
2023-05-06T01:12:39.817Z,101051.03
2023-05-06T01:15:13.834Z,101052.88
2023-05-06T01:17:45.393Z,101047.50
2023-05-06T01:20:13.371Z,101056.41
2023-05-06T01:22:41.278Z,101055.56
2023-05-06T01:25:18.927Z,101054.72
2023-05-06T01:27:46.440Z,101058.41
2023-05-06T01:30:16.572Z,101048.47
2023-05-06T01:33:05.283Z,101052.88
2023-05-06T01:36:08.989Z,101056.56
2023-05-06T01:38:57.904Z,101052.19
2023-05-06T01:41:26.259Z,101051.19
2023-05-06T01:43:54.833Z,101050.34
2023-05-06T01:46:24.648Z,101042.25
2023-05-06T01:48:55.225Z,101047.63
2023-05-06T01:51:23.901Z,101044.94
2023-05-06T01:53:51.203Z,101053.88
2023-05-06T01:56:18.462Z,101047.63
2023-05-06T01:58:45.846Z,101050.34
2023-05-06T02:01:13.121Z,101046.78
2023-05-06T02:03:40.629Z,101040.53
2023-05-06T02:06:08.272Z,101041.41
2023-05-06T02:08:40.460Z,101052.19
2023-05-06T02:11:09.754Z,101043.22
2023-05-06T02:13:37.151Z,101046.78
2023-05-06T02:16:05.957Z,101045.91
2023-05-06T02:18:33.293Z,101036.88
2023-05-06T02:21:01.102Z,101037.84
2023-05-06T02:23:28.316Z,101033.31
2023-05-06T02:25:57.985Z,101037.84
2023-05-06T02:28:25.810Z,101039.69
2023-05-06T02:30:57.310Z,101040.53
2023-05-06T02:33:25.226Z,101030.75
2023-05-06T02:35:52.514Z,101037.00
2023-05-06T02:38:19.902Z,101033.44
2023-05-06T02:40:47.126Z,101029.06
2023-05-06T02:43:14.436Z,101036.13
2023-05-06T02:45:41.870Z,101033.44
2023-05-06T02:48:09.155Z,101038.00
2023-05-06T02:50:37.354Z,101040.69
2023-05-06T02:53:04.673Z,101038.84
2023-05-06T02:55:32.036Z,101040.69
2023-05-06T02:57:59.228Z,101037.13
2023-05-06T03:00:26.464Z,101029.06
2023-05-06T03:02:53.772Z,101029.06
2023-05-06T03:05:21.257Z,101031.75
2023-05-06T03:07:48.667Z,101038.00
2023-05-06T03:10:16.213Z,101038.00
2023-05-06T03:12:43.911Z,101039.84
2023-05-06T03:15:11.670Z,101038.97
2023-05-06T03:17:39.340Z,101035.44
2023-05-06T03:20:08.836Z,101038.13
2023-05-06T03:22:38.614Z,101035.44
2023-05-06T03:25:06.429Z,101037.28
2023-05-06T03:27:35.568Z,101040.81
2023-05-06T03:30:10.608Z,101033.72
2023-05-06T03:32:38.889Z,101036.41
2023-05-06T03:35:11.685Z,101035.44
2023-05-06T03:37:41.111Z,101036.41
2023-05-06T03:40:09.773Z,101027.38
2023-05-06T03:42:37.338Z,101035.44
2023-05-06T03:45:07.189Z,101038.25
2023-05-06T03:47:35.045Z,101042.78
2023-05-06T03:50:04.184Z,101040.94
2023-05-06T03:52:33.885Z,101048.19
2023-05-06T03:55:01.752Z,101042.78
2023-05-06T03:57:30.715Z,101050.88
2023-05-06T03:59:58.387Z,101043.66
2023-05-06T04:02:29.309Z,101039.97
2023-05-06T04:04:57.894Z,101046.22
2023-05-06T04:07:25.203Z,101047.19
2023-05-06T04:09:52.351Z,101051.72
2023-05-06T04:12:19.614Z,101059.78
2023-05-06T04:14:48.482Z,101056.25
2023-05-06T04:17:15.967Z,101059.78
2023-05-06T04:19:44.564Z,101057.09
2023-05-06T04:22:11.791Z,101052.72
2023-05-06T04:24:39.115Z,101059.94
2023-05-06T04:27:06.471Z,101053.72
2023-05-06T04:29:34.325Z,101068.03
2023-05-06T04:32:04.862Z,101057.41
2023-05-06T04:34:36.187Z,101058.25
2023-05-06T04:37:05.719Z,101060.09
2023-05-06T04:39:59.509Z,101060.09
2023-05-06T04:42:27.302Z,101065.47
2023-05-06T04:45:05.793Z,101066.31
2023-05-06T04:47:35.514Z,101070.00
2023-05-06T04:50:04.563Z,101068.19
2023-05-06T04:52:32.262Z,101076.38
2023-05-06T04:54:59.831Z,101077.22
2023-05-06T04:57:27.150Z,101076.38
2023-05-06T04:59:55.972Z,101067.28
2023-05-06T05:02:23.521Z,101072.84
2023-05-06T05:04:51.802Z,101077.22
2023-05-06T05:07:19.555Z,101074.53
2023-05-06T05:09:46.998Z,101074.53
2023-05-06T05:12:14.337Z,101074.53
2023-05-06T05:14:47.409Z,101073.69
2023-05-06T05:17:15.492Z,101078.06
2023-05-06T05:19:43.146Z,101091.53
2023-05-06T05:22:11.836Z,101080.75
2023-05-06T05:24:39.918Z,101087.03
2023-05-06T05:27:07.607Z,101082.47
2023-05-06T05:29:35.848Z,101088.72
2023-05-06T05:32:06.335Z,101084.19
2023-05-06T05:34:33.597Z,101089.56
2023-05-06T05:37:01.882Z,101089.56
2023-05-06T05:39:30.371Z,101086.88
2023-05-06T05:41:58.514Z,101096.78
2023-05-06T05:44:26.423Z,101094.94
2023-05-06T05:46:54.928Z,101095.78
2023-05-06T05:49:24.212Z,101093.09
2023-05-06T05:51:53.489Z,101096.66
2023-05-06T05:54:22.192Z,101093.94
2023-05-06T05:56:50.602Z,101102.19
2023-05-06T05:59:17.924Z,101093.25
2023-05-06T06:01:47.954Z,101096.78
2023-05-06T06:04:16.026Z,101104.88
2023-05-06T06:06:43.714Z,101101.34
2023-05-06T06:09:11.211Z,101093.94
2023-05-06T06:11:39.861Z,101110.09
2023-05-06T06:14:07.718Z,101105.72
2023-05-06T06:16:36.973Z,101108.41
2023-05-06T06:19:04.572Z,101107.41
2023-05-06T06:21:32.372Z,101104.72
2023-05-06T06:24:00.563Z,101107.28
2023-05-06T06:26:27.841Z,101113.38
2023-05-06T06:28:55.120Z,101108.00
2023-05-06T06:31:22.698Z,101109.84
2023-05-06T06:33:50.213Z,101108.84
2023-05-06T06:36:17.655Z,101103.47
2023-05-06T06:38:44.947Z,101108.84
2023-05-06T06:41:12.236Z,101103.47
2023-05-06T06:43:39.452Z,101107.84
2023-05-06T06:46:19.933Z,101111.41
2023-05-06T06:48:47.949Z,101103.47
2023-05-06T06:51:15.295Z,101110.53
2023-05-06T06:53:43.127Z,101100.75
2023-05-06T06:56:14.122Z,101105.16
2023-05-06T06:58:41.766Z,101099.75
2023-05-06T07:01:10.197Z,101100.66
2023-05-06T07:03:37.488Z,101100.66
2023-05-06T07:06:04.746Z,101104.19
2023-05-06T07:08:32.120Z,101098.81
2023-05-06T07:10:59.347Z,101103.19
2023-05-06T07:13:26.812Z,101106.72
2023-05-06T07:15:54.077Z,101100.34
2023-05-06T07:18:21.707Z,101105.63
2023-05-06T07:20:48.968Z,101098.41
2023-05-06T07:23:16.367Z,101098.25
2023-05-06T07:25:43.697Z,101101.69
2023-05-06T07:33:05.775Z,101103.38
2023-05-06T07:35:33.181Z,101105.91
2023-05-06T07:38:00.585Z,101103.22
2023-05-06T07:40:27.936Z,101101.38
2023-05-06T07:42:55.684Z,101105.81
2023-05-06T07:45:24.421Z,101113.88
2023-05-06T07:47:52.101Z,101108.34
2023-05-06T07:50:19.631Z,101105.66
2023-05-06T07:52:46.937Z,101106.38
2023-05-06T07:55:14.260Z,101111.63
2023-05-06T07:57:41.495Z,101105.38
2023-05-06T08:00:10.117Z,101105.38
2023-05-06T08:02:44.491Z,101109.78
2023-05-06T08:05:13.451Z,101112.31
2023-05-06T08:07:42.362Z,101114.03
2023-05-06T08:10:10.366Z,101107.81
2023-05-06T08:12:38.180Z,101118.44
2023-05-06T08:15:06.114Z,101115.75
2023-05-06T08:17:33.467Z,101117.44
2023-05-06T08:20:00.803Z,101124.41
2023-05-06T08:22:28.200Z,101115.31
2023-05-06T08:24:55.491Z,101118.84
2023-05-06T08:27:22.961Z,101118.16
2023-05-06T08:29:50.354Z,101122.53
2023-05-06T08:32:17.569Z,101119.84
2023-05-06T08:34:44.847Z,101122.41
2023-05-06T08:37:12.176Z,101127.66
2023-05-06T08:39:39.448Z,101124.81
2023-05-06T08:42:11.460Z,101124.56
2023-05-06T08:44:38.988Z,101120.00
2023-05-06T08:47:06.458Z,101118.03
2023-05-06T08:49:33.801Z,101121.44
2023-05-06T08:52:04.753Z,101117.75
2023-05-06T08:54:35.856Z,101120.31
2023-05-06T08:57:05.748Z,101122.84
2023-05-06T08:59:33.833Z,101124.56
2023-05-06T09:02:02.247Z,101126.13
2023-05-06T09:04:30.038Z,101125.00
2023-05-06T09:07:00.300Z,101121.31
2023-05-06T09:09:27.552Z,101128.41
2023-05-06T09:11:57.505Z,101131.94
2023-05-06T09:14:25.299Z,101131.81
2023-05-06T09:16:53.103Z,101133.34
2023-05-06T09:19:23.362Z,101131.50
2023-05-06T09:21:51.801Z,101128.81
2023-05-06T09:24:20.309Z,101127.13
2023-05-06T09:26:47.946Z,101123.41
2023-05-06T09:29:15.741Z,101126.28
2023-05-06T09:31:47.039Z,101127.13
2023-05-06T09:34:15.942Z,101127.13
2023-05-06T09:36:43.242Z,101119.88
2023-05-06T09:39:10.866Z,101124.41
2023-05-06T09:41:38.302Z,101127.97
2023-05-06T09:44:06.280Z,101118.03
2023-05-06T09:46:33.836Z,101119.75
2023-05-06T09:49:01.655Z,101115.34
2023-05-06T09:51:31.119Z,101118.75
2023-05-06T09:54:00.816Z,101124.16
2023-05-06T09:56:30.380Z,101118.75
2023-05-06T09:59:01.333Z,101112.53
2023-05-06T10:01:36.726Z,101118.59
2023-05-06T10:04:08.706Z,101113.22
2023-05-06T10:06:39.459Z,101114.91
2023-05-06T10:09:10.572Z,101114.06
2023-05-06T10:11:38.773Z,101108.66
2023-05-06T10:14:06.856Z,101113.09
2023-05-06T10:16:36.322Z,101106.69
2023-05-06T10:19:06.778Z,101101.31
2023-05-06T10:21:38.126Z,101100.16
2023-05-06T10:24:07.618Z,101100.16
2023-05-06T10:26:37.535Z,101090.25
2023-05-06T10:29:10.349Z,101095.50
2023-05-06T10:31:44.924Z,101089.09
2023-05-06T10:34:12.211Z,101086.41
2023-05-06T10:36:43.183Z,101087.25
2023-05-06T10:39:13.707Z,101079.16
2023-05-06T10:41:41.018Z,101084.44
2023-05-06T10:44:10.040Z,101081.72
2023-05-06T10:46:57.840Z,101080.00
2023-05-06T10:49:25.511Z,101082.56
2023-05-06T10:52:12.966Z,101073.50
2023-05-06T10:54:51.618Z,101076.19
2023-05-06T10:57:21.868Z,101066.25
2023-05-06T10:59:49.491Z,101066.25
2023-05-06T11:02:20.445Z,101067.09
2023-05-06T11:04:53.310Z,101065.41
2023-05-06T11:07:24.736Z,101061.69
2023-05-06T11:10:01.150Z,101055.47
2023-05-06T11:12:49.431Z,101051.75
2023-05-06T11:15:36.094Z,101050.91
2023-05-06T11:18:21.880Z,101048.22
2023-05-06T11:20:50.833Z,101042.84
2023-05-06T11:23:21.204Z,101036.59
2023-05-06T11:25:48.686Z,101042.84
2023-05-06T11:28:16.483Z,101043.56
2023-05-06T11:30:53.837Z,101036.31
2023-05-06T11:33:24.090Z,101034.47
2023-05-06T11:35:51.480Z,101035.47
2023-05-06T11:38:18.966Z,101030.94
2023-05-06T11:40:46.222Z,101025.69
2023-05-06T11:43:14.992Z,101038.16
2023-05-06T11:45:47.003Z,101033.78
2023-05-06T11:48:15.939Z,101033.06
2023-05-06T11:50:49.896Z,101034.06
2023-05-06T11:53:19.992Z,101035.91
2023-05-06T11:55:48.385Z,101032.38
2023-05-06T11:58:20.035Z,101037.75
2023-05-06T12:00:51.453Z,101037.88
2023-05-06T12:03:20.206Z,101043.28
2023-05-06T12:05:48.970Z,101028.94
2023-05-06T12:08:27.511Z,101025.41
2023-05-06T12:11:02.214Z,101021.84
2023-05-06T12:13:30.051Z,101024.56
2023-05-06T12:16:01.377Z,101033.50
2023-05-06T12:18:29.362Z,101014.78
2023-05-06T12:20:57.524Z,101017.47
2023-05-06T12:23:24.963Z,101011.22
2023-05-06T12:26:06.666Z,101013.91
2023-05-06T12:28:36.770Z,101013.06
2023-05-06T12:31:19.159Z,101008.50
2023-05-06T12:33:49.120Z,101008.50
2023-05-06T12:36:17.697Z,101007.66
2023-05-06T12:39:00.013Z,101013.06
2023-05-06T12:41:41.680Z,101007.66
2023-05-06T12:44:36.754Z,101005.97
2023-05-06T12:47:07.510Z,101006.81
2023-05-06T12:49:59.101Z,100997.03
2023-05-06T12:52:29.995Z,101001.44
2023-05-06T12:55:00.757Z,100995.19
2023-05-06T12:57:28.112Z,100989.78
2023-05-06T12:59:56.477Z,100994.34
2023-05-06T13:02:23.995Z,100983.56
2023-05-06T13:04:51.504Z,100982.72
2023-05-06T13:07:18.765Z,100984.41
2023-05-06T13:09:46.254Z,100979.03
2023-05-06T13:12:13.604Z,100975.47
2023-05-06T13:14:40.981Z,100970.09
2023-05-06T13:17:08.718Z,100970.25
2023-05-06T13:19:36.195Z,100966.53
2023-05-06T13:22:03.919Z,100971.94
2023-05-06T13:24:32.263Z,100960.31
2023-05-06T13:27:01.202Z,100954.91
2023-05-06T13:29:29.768Z,100948.69
2023-05-06T13:31:57.721Z,100949.53
2023-05-06T13:34:26.007Z,100944.97
2023-05-06T13:36:54.634Z,100942.28
2023-05-06T13:39:22.746Z,100938.75
2023-05-06T13:41:50.272Z,100934.19
2023-05-06T13:44:21.089Z,100940.44
2023-05-06T13:46:48.745Z,100929.66
2023-05-06T13:49:16.546Z,100928.81
2023-05-06T13:51:43.952Z,100922.56
2023-05-06T13:54:11.316Z,100927.13
2023-05-06T13:56:38.650Z,100919.72
2023-05-06T13:59:08.146Z,100919.72
2023-05-06T14:01:36.351Z,100928.81
2023-05-06T14:04:03.894Z,100918.88
2023-05-06T14:06:31.581Z,100920.72
2023-05-06T14:08:58.890Z,100919.72
2023-05-06T14:11:26.232Z,100918.03
2023-05-06T14:13:56.387Z,100918.03
2023-05-06T14:16:23.815Z,100912.63
2023-05-06T14:18:51.297Z,100908.09
2023-05-06T14:21:18.556Z,100904.56
2023-05-06T14:23:45.893Z,100917.19
2023-05-06T14:26:14.233Z,100911.63
2023-05-06T14:28:41.558Z,100906.25
2023-05-06T14:31:10.244Z,100896.47
2023-05-06T14:33:38.610Z,100895.63
2023-05-06T14:36:06.238Z,100901.84
2023-05-06T14:38:33.621Z,100904.56
2023-05-06T14:41:01.135Z,100901.00
2023-05-06T14:43:28.562Z,100895.63
2023-05-06T14:45:55.958Z,100902.69
2023-05-06T14:48:25.427Z,100900.00
2023-05-06T14:50:53.125Z,100901.00
2023-05-06T14:53:20.540Z,100897.31
2023-05-06T14:55:48.959Z,100899.16
2023-05-06T14:58:16.329Z,100903.72
2023-05-06T15:00:43.693Z,100907.25
2023-05-06T15:03:11.119Z,100896.47
2023-05-06T15:05:38.643Z,100899.16
2023-05-06T15:08:06.177Z,100897.31
2023-05-06T15:10:33.615Z,100898.31
2023-05-06T15:13:01.136Z,100891.91
2023-05-06T15:15:35.615Z,100900.84
2023-05-06T15:18:05.248Z,100895.47
2023-05-06T15:20:32.631Z,100883.84
2023-05-06T15:23:00.037Z,100887.38
2023-05-06T15:25:34.902Z,100891.91
2023-05-06T15:28:05.087Z,100891.91
2023-05-06T15:30:32.476Z,100886.53
2023-05-06T15:33:01.645Z,100891.91
2023-05-06T15:35:30.443Z,100885.69
2023-05-06T15:37:59.026Z,100884.69
2023-05-06T15:40:26.976Z,100885.69
2023-05-06T15:42:54.400Z,100891.06
2023-05-06T15:45:22.377Z,100883.84
2023-05-06T15:47:49.720Z,100883.00
2023-05-06T15:50:31.811Z,100878.44
2023-05-06T15:53:02.114Z,100872.06
2023-05-06T15:55:34.524Z,100864.97
2023-05-06T15:58:08.693Z,100873.06
2023-05-06T16:00:35.982Z,100871.19
2023-05-06T16:03:03.778Z,100865.81
2023-05-06T16:05:31.675Z,100874.75
2023-05-06T16:07:59.073Z,100865.81
2023-05-06T16:10:26.435Z,100860.41
2023-05-06T16:12:54.319Z,100862.13
2023-05-06T16:15:21.739Z,100855.03
2023-05-06T16:17:49.077Z,100861.28
2023-05-06T16:20:16.664Z,100854.03
2023-05-06T16:22:49.935Z,100849.63
2023-05-06T16:25:17.396Z,100855.88
2023-05-06T16:27:44.721Z,100849.63
2023-05-06T16:30:12.674Z,100855.03
2023-05-06T16:32:40.282Z,100846.94
2023-05-06T16:35:08.416Z,100851.34
2023-05-06T16:37:36.490Z,100850.50
2023-05-06T16:40:04.626Z,100844.25
2023-05-06T16:42:31.882Z,100845.09
2023-05-06T16:44:59.225Z,100846.94
2023-05-06T16:47:28.295Z,100842.41
2023-05-06T16:49:55.829Z,100847.78
2023-05-06T16:52:23.242Z,100836.16
2023-05-06T16:54:51.490Z,100844.09
2023-05-06T16:57:18.973Z,100844.09
2023-05-06T16:59:46.389Z,100842.28
2023-05-06T17:02:13.779Z,100844.97
2023-05-06T17:04:41.418Z,100847.50
2023-05-06T17:07:11.094Z,100848.34
2023-05-06T17:09:38.910Z,100846.50
2023-05-06T17:12:07.477Z,100843.81
2023-05-06T17:14:35.741Z,100844.66
2023-05-06T17:17:05.429Z,100840.97
2023-05-06T17:19:34.010Z,100839.25
2023-05-06T17:22:01.449Z,100838.28
2023-05-06T17:24:28.963Z,100843.66
2023-05-06T17:26:56.427Z,100844.53
2023-05-06T17:29:23.834Z,100846.38
2023-05-06T17:31:51.265Z,100844.53
2023-05-06T17:34:18.615Z,100835.59
2023-05-06T17:36:45.988Z,100839.97
2023-05-06T17:39:13.376Z,100846.22
2023-05-06T17:41:40.938Z,100842.50
2023-05-06T17:44:08.201Z,100845.19
2023-05-06T17:46:35.463Z,100842.22
2023-05-06T17:49:02.823Z,100837.81
2023-05-06T17:51:30.070Z,100835.13
2023-05-06T17:53:57.630Z,100832.28
2023-05-06T17:56:25.112Z,100837.66
2023-05-06T17:58:52.295Z,100843.06
2023-05-06T18:01:19.706Z,100838.50
2023-05-06T18:03:47.157Z,100833.97
2023-05-06T18:06:14.512Z,100851.88
2023-05-06T18:08:41.776Z,100842.91
2023-05-06T18:11:09.091Z,100842.91
2023-05-06T18:13:36.980Z,100853.56
2023-05-06T18:16:04.933Z,100848.16
2023-05-06T18:18:32.245Z,100848.16
2023-05-06T18:20:59.505Z,100851.00
2023-05-06T18:23:26.729Z,100851.00
2023-05-06T18:25:53.995Z,100858.22
2023-05-06T18:28:21.280Z,100854.69
2023-05-06T18:30:48.514Z,100856.53
2023-05-06T18:33:15.834Z,100865.47
2023-05-06T18:35:43.170Z,100866.47
2023-05-06T18:38:11.688Z,100862.78
2023-05-06T18:40:39.648Z,100862.78
2023-05-06T18:43:08.190Z,100861.94
2023-05-06T18:45:35.607Z,100873.56
2023-05-06T18:48:03.096Z,100868.03
2023-05-06T18:50:30.359Z,100869.00
2023-05-06T18:52:57.623Z,100870.03
2023-05-06T18:55:24.831Z,100867.16
2023-05-06T18:57:52.142Z,100875.25
2023-05-06T19:00:21.744Z,100870.72
2023-05-06T19:02:49.174Z,100876.13
2023-05-06T19:05:16.862Z,100876.13
2023-05-06T19:07:44.216Z,100883.22
2023-05-06T19:10:13.944Z,100874.28
2023-05-06T19:12:41.697Z,100885.06
2023-05-06T19:15:10.178Z,100881.34
2023-05-06T19:17:37.973Z,100885.91
2023-05-06T19:20:05.987Z,100884.91
2023-05-06T19:22:33.363Z,100891.13
2023-05-06T19:25:00.840Z,100889.28
2023-05-06T19:27:28.936Z,100887.44
2023-05-06T19:29:56.605Z,100902.63
2023-05-06T19:32:23.960Z,100909.72
2023-05-06T19:34:51.290Z,100908.88
2023-05-06T19:37:18.558Z,100905.16
2023-05-06T19:39:46.579Z,100911.41
2023-05-06T19:42:13.926Z,100916.81
2023-05-06T19:44:41.237Z,100916.81
2023-05-06T19:47:08.495Z,100917.66
2023-05-06T19:49:35.884Z,100923.03
2023-05-06T19:52:03.115Z,100920.34
2023-05-06T19:54:30.534Z,100909.56
2023-05-06T19:56:59.834Z,100908.59
2023-05-06T19:59:27.914Z,100913.97
2023-05-06T20:01:57.075Z,100919.38
2023-05-06T20:04:24.370Z,100917.56
2023-05-06T20:06:52.239Z,100921.09
2023-05-06T20:09:19.685Z,100923.78
2023-05-06T20:11:47.472Z,100921.94
2023-05-06T20:14:14.869Z,100920.09
2023-05-06T20:16:42.212Z,100921.94
2023-05-06T20:19:09.616Z,100915.69
2023-05-06T20:21:36.949Z,100927.16
2023-05-06T20:24:04.445Z,100925.47
2023-05-06T20:26:31.759Z,100920.09
2023-05-06T20:28:59.234Z,100926.31
2023-05-06T20:31:26.691Z,100931.72
2023-05-06T20:33:53.981Z,100930.88
2023-05-06T20:36:21.365Z,100931.72
2023-05-06T20:38:50.117Z,100929.03
2023-05-06T20:41:17.390Z,100929.88
2023-05-06T20:43:44.603Z,100927.03
2023-05-06T20:46:11.915Z,100925.31
2023-05-06T20:48:39.171Z,100931.59
2023-05-06T20:51:06.541Z,100930.72
2023-05-06T20:53:33.934Z,100929.75
2023-05-06T20:56:01.371Z,100934.13
2023-05-06T20:58:29.527Z,100939.53
2023-05-06T21:00:57.908Z,100932.44
2023-05-06T21:03:26.659Z,100937.66
2023-05-06T21:05:54.140Z,100933.97
2023-05-06T21:08:21.424Z,100933.97
2023-05-06T21:10:48.706Z,100938.50
2023-05-06T21:13:16.011Z,100944.75
2023-05-06T21:15:44.166Z,100937.50
2023-05-06T21:18:11.467Z,100940.38
2023-05-06T21:20:38.752Z,100940.38
2023-05-06T21:23:05.998Z,100940.38
2023-05-06T21:25:33.272Z,100947.63
2023-05-06T21:28:05.334Z,100942.22
2023-05-06T21:30:35.236Z,100945.59
2023-05-06T21:33:02.973Z,100943.78
2023-05-06T21:35:31.104Z,100939.38
2023-05-06T21:37:58.497Z,100936.66
2023-05-06T21:40:26.147Z,100939.38
2023-05-06T21:42:53.474Z,100939.38
2023-05-06T21:45:21.473Z,100946.59
2023-05-06T21:47:49.103Z,100943.06
2023-05-06T21:50:16.429Z,100948.47
2023-05-06T21:52:43.850Z,100951.16
2023-05-06T21:55:11.758Z,100961.94
2023-05-06T21:57:39.324Z,100958.41
2023-05-06T22:00:11.939Z,100960.09
2023-05-06T22:02:40.605Z,100967.34
2023-05-06T22:05:09.025Z,100958.41
2023-05-06T22:07:36.598Z,100962.94
2023-05-06T22:10:04.901Z,100964.78
2023-05-06T22:12:32.181Z,100963.78
2023-05-06T22:14:59.551Z,100972.72
2023-05-06T22:17:27.323Z,100983.50
2023-05-06T22:19:56.103Z,100981.81
2023-05-06T22:22:25.256Z,100975.41
2023-05-06T22:24:52.555Z,100980.81
2023-05-06T22:27:19.785Z,100977.28
2023-05-06T22:29:47.084Z,100981.66
2023-05-06T22:32:14.329Z,100982.66
2023-05-06T22:34:41.660Z,100977.28
2023-05-06T22:37:09.844Z,100970.03
2023-05-06T22:39:37.612Z,100978.13
2023-05-06T22:42:04.975Z,100981.66
2023-05-06T22:44:32.361Z,100981.66
2023-05-06T22:46:59.956Z,100987.91
2023-05-06T22:49:28.777Z,100978.97
2023-05-06T22:51:57.024Z,100985.19
2023-05-06T22:54:24.655Z,100980.66
2023-05-06T22:56:52.086Z,100978.97
2023-05-06T22:59:19.362Z,100984.50
2023-05-06T23:01:46.831Z,100976.44
2023-05-06T23:04:14.511Z,100977.44
2023-05-06T23:06:42.359Z,100973.84
2023-05-06T23:09:09.550Z,100973.00
2023-05-06T23:11:36.804Z,100979.25
2023-05-06T23:14:04.321Z,100971.31
2023-05-06T23:16:31.626Z,100974.88
2023-05-06T23:18:58.894Z,100971.31
2023-05-06T23:21:26.804Z,100976.72
2023-05-06T23:23:54.185Z,100977.72
2023-05-06T23:26:21.510Z,100970.59
2023-05-06T23:28:51.797Z,100985.81
2023-05-06T23:31:19.140Z,100988.50
2023-05-06T23:33:46.361Z,100983.09
2023-05-06T23:36:13.677Z,100989.34
2023-05-06T23:38:40.981Z,100987.66
2023-05-06T23:41:08.263Z,100984.09
2023-05-06T23:43:35.496Z,100985.91
2023-05-06T23:46:02.834Z,100982.34
2023-05-06T23:48:30.162Z,100980.66
2023-05-06T23:50:57.413Z,100985.06
2023-05-06T23:53:24.714Z,100983.38
2023-05-06T23:55:51.963Z,100993.16
2023-05-06T23:58:19.313Z,100985.22
